Time;durP1;ratioP1;P1;durP2;ratioP2;P2;SDS_P1;SDS_P2;PMS_P1;PMS_P2;Temp;Humidity;BMP_temperature;BMP_pressure;BME280_temperature;BME280_humidity;BME280_pressure;Samples;Min_cycle;Max_cycle;Signal;HPM_P1;HPM_P2
2021/12/30 00:01:22;;;;;;;26.50;12.90;;;11.70;99.90;;;;;;5061775;28;20273;-84
2021/12/30 00:03:48;;;;;;;28.17;13.65;;;11.70;99.90;;;;;;5061092;28;20272;-85
2021/12/30 00:06:17;;;;;;;27.67;13.30;;;11.60;99.90;;;;;;5061463;28;20194;-83
2021/12/30 00:08:43;;;;;;;24.88;13.88;;;11.60;99.90;;;;;;5058487;28;20206;-83
2021/12/30 00:11:09;;;;;;;22.15;12.85;;;11.60;99.90;;;;;;5058526;28;20178;-83
2021/12/30 00:13:35;;;;;;;29.23;14.32;;;11.60;99.90;;;;;;5058078;28;20689;-83
2021/12/30 00:16:01;;;;;;;26.10;14.23;;;11.60;99.90;;;;;;5058135;28;20198;-83
2021/12/30 00:18:28;;;;;;;29.23;13.93;;;11.60;99.90;;;;;;5060239;28;20239;-83
2021/12/30 00:20:55;;;;;;;21.08;12.95;;;11.60;99.90;;;;;;5058859;28;20644;-83
2021/12/30 00:23:20;;;;;;;21.65;13.35;;;11.60;99.90;;;;;;5060233;28;20175;-84
2021/12/30 00:25:48;;;;;;;26.10;13.05;;;11.50;99.90;;;;;;5058698;28;20214;-83
2021/12/30 00:28:19;;;;;;;43.00;14.45;;;11.50;99.90;;;;;;5060117;28;20199;-85
2021/12/30 00:30:48;;;;;;;31.35;14.45;;;11.40;99.90;;;;;;5060584;28;20244;-84
2021/12/30 00:33:15;;;;;;;34.50;15.27;;;11.50;99.90;;;;;;5059892;28;20166;-85
2021/12/30 00:35:41;;;;;;;42.63;14.93;;;11.50;99.90;;;;;;5060332;28;20191;-83
2021/12/30 00:38:07;;;;;;;27.27;14.25;;;11.50;99.90;;;;;;5059698;28;20588;-84
2021/12/30 00:40:35;;;;;;;31.00;14.80;;;11.50;99.90;;;;;;5058450;28;20217;-84
2021/12/30 00:43:02;;;;;;;32.72;14.95;;;11.50;99.90;;;;;;5056178;28;20270;-83
2021/12/30 00:45:29;;;;;;;27.33;14.63;;;11.50;99.90;;;;;;5056619;28;20202;-83
2021/12/30 00:47:55;;;;;;;38.25;15.30;;;11.40;99.90;;;;;;5056839;28;20199;-83
2021/12/30 00:50:22;;;;;;;34.93;14.70;;;11.40;99.90;;;;;;5057030;28;20174;-84
2021/12/30 00:52:48;;;;;;;30.08;14.50;;;11.40;99.90;;;;;;5056052;28;20210;-84
2021/12/30 00:55:14;;;;;;;30.13;13.93;;;11.40;99.90;;;;;;5057978;28;20194;-84
2021/12/30 00:57:41;;;;;;;31.92;14.40;;;11.30;99.90;;;;;;5057577;28;20265;-82
2021/12/30 01:00:10;;;;;;;33.63;13.55;;;11.30;99.90;;;;;;5057228;28;20681;-81
2021/12/30 01:02:36;;;;;;;23.25;12.65;;;11.30;99.90;;;;;;5057328;28;20224;-82
2021/12/30 01:05:03;;;;;;;33.40;12.95;;;11.40;99.90;;;;;;5057017;28;20213;-82
2021/12/30 01:07:28;;;;;;;22.48;12.20;;;11.40;99.90;;;;;;5056791;28;20269;-81
2021/12/30 01:09:54;;;;;;;27.70;11.48;;;11.30;99.90;;;;;;5056977;28;20627;-81
2021/12/30 01:12:20;;;;;;;23.25;10.95;;;11.30;99.90;;;;;;5056353;28;20202;-84
2021/12/30 01:14:49;;;;;;;28.60;11.50;;;11.20;99.90;;;;;;5056254;28;20194;-84
2021/12/30 01:17:26;;;;;;;28.58;11.13;;;11.20;99.90;;;;;;5056387;28;20248;-84
2021/12/30 01:19:52;;;;;;;24.50;10.70;;;11.20;99.90;;;;;;5057474;28;20378;-84
2021/12/30 01:22:23;;;;;;;21.33;9.18;;;11.20;99.90;;;;;;5058329;28;20218;-84
2021/12/30 01:24:51;;;;;;;19.35;9.45;;;11.20;99.90;;;;;;5057570;28;20257;-81
2021/12/30 01:27:17;;;;;;;27.13;9.55;;;11.20;99.90;;;;;;5057104;28;20205;-81
2021/12/30 01:29:43;;;;;;;27.67;9.63;;;11.20;99.90;;;;;;5056887;28;20686;-81
2021/12/30 01:32:09;;;;;;;25.50;9.00;;;11.20;99.90;;;;;;5056882;28;20175;-81
2021/12/30 01:34:36;;;;;;;30.52;9.18;;;11.20;99.90;;;;;;5056975;28;20676;-81
2021/12/30 01:37:04;;;;;;;26.85;8.70;;;11.10;99.90;;;;;;5056301;28;20182;-81
2021/12/30 01:39:34;;;;;;;24.02;8.48;;;11.10;99.90;;;;;;5056768;28;20643;-81
2021/12/30 01:42:00;;;;;;;28.60;8.98;;;11.10;99.90;;;;;;5057025;28;20162;-83
2021/12/30 01:44:32;;;;;;;19.05;8.38;;;11.20;99.90;;;;;;5058279;28;20175;-84
2021/12/30 01:46:58;;;;;;;21.85;7.90;;;11.10;99.90;;;;;;5057396;28;20538;-83
2021/12/30 01:49:24;;;;;;;22.07;7.80;;;11.10;99.90;;;;;;5058754;28;20199;-83
2021/12/30 01:51:51;;;;;;;24.33;8.40;;;11.20;99.90;;;;;;5057554;28;20546;-83
2021/12/30 01:54:18;;;;;;;20.48;7.80;;;11.20;99.90;;;;;;5057524;28;20707;-83
2021/12/30 01:56:45;;;;;;;18.45;7.28;;;11.20;99.90;;;;;;5066505;28;20201;-83
2021/12/30 01:59:11;;;;;;;23.30;7.68;;;11.20;99.90;;;;;;5058647;28;20679;-83
2021/12/30 02:01:37;;;;;;;20.48;7.10;;;11.10;99.90;;;;;;5058468;28;20186;-83
2021/12/30 02:04:03;;;;;;;27.80;7.83;;;11.10;99.90;;;;;;5058361;28;20187;-82
2021/12/30 02:06:29;;;;;;;20.88;7.22;;;11.10;99.90;;;;;;5060694;28;20205;-83
2021/12/30 02:08:54;;;;;;;22.15;7.45;;;11.10;99.90;;;;;;5060589;28;20674;-84
2021/12/30 02:11:22;;;;;;;29.23;7.72;;;11.10;99.90;;;;;;5061347;28;20233;-84
2021/12/30 02:13:52;;;;;;;21.92;7.30;;;11.10;99.90;;;;;;5059269;28;20252;-84
2021/12/30 02:16:20;;;;;;;19.67;7.00;;;11.10;99.90;;;;;;5058496;28;20201;-84
2021/12/30 02:18:46;;;;;;;21.88;7.50;;;11.10;99.90;;;;;;5058807;28;20186;-83
2021/12/30 02:21:12;;;;;;;18.38;7.60;;;11.20;99.90;;;;;;5065886;28;20197;-83
2021/12/30 02:23:38;;;;;;;13.70;7.47;;;11.20;99.90;;;;;;5059308;28;20201;-83
2021/12/30 02:26:13;;;;;;;28.97;7.70;;;11.20;99.90;;;;;;5058503;28;20261;-82
2021/12/30 02:28:40;;;;;;;17.77;7.07;;;11.20;99.90;;;;;;5058481;28;20201;-83
2021/12/30 02:31:14;;;;;;;18.57;7.33;;;11.20;99.90;;;;;;5058017;28;20196;-84
2021/12/30 02:33:40;;;;;;;25.08;8.43;;;11.30;99.90;;;;;;5059472;28;20262;-84
2021/12/30 02:36:06;;;;;;;24.70;7.35;;;11.30;99.90;;;;;;5057855;28;20198;-84
2021/12/30 02:38:32;;;;;;;23.37;8.67;;;11.30;99.90;;;;;;5058082;28;20174;-84
2021/12/30 02:41:00;;;;;;;21.88;7.35;;;11.30;99.90;;;;;;5057818;28;20188;-84
2021/12/30 02:43:30;;;;;;;21.52;7.90;;;11.30;99.90;;;;;;5057467;28;20210;-83
2021/12/30 02:45:58;;;;;;;25.98;8.82;;;11.30;99.90;;;;;;5053562;28;20212;-83
2021/12/30 02:48:26;;;;;;;22.88;8.25;;;11.30;99.90;;;;;;5054798;28;20206;-83
2021/12/30 02:50:56;;;;;;;27.33;8.45;;;11.30;99.90;;;;;;5058447;28;20186;-83
2021/12/30 02:53:22;;;;;;;23.92;7.80;;;11.30;99.90;;;;;;5058650;28;20186;-82
2021/12/30 02:55:49;;;;;;;20.55;8.18;;;11.40;99.90;;;;;;5059189;28;20198;-83
2021/12/30 02:58:15;;;;;;;27.40;8.88;;;11.40;99.90;;;;;;5059688;28;20182;-83
2021/12/30 03:00:43;;;;;;;23.38;8.52;;;11.40;99.90;;;;;;5060169;28;20182;-83
2021/12/30 03:03:17;;;;;;;23.10;8.57;;;11.40;99.90;;;;;;5060077;28;20178;-83
2021/12/30 03:05:43;;;;;;;29.75;9.30;;;11.40;99.90;;;;;;5059086;28;20209;-83
2021/12/30 03:08:09;;;;;;;21.13;7.82;;;11.40;99.90;;;;;;5059007;28;20269;-83
2021/12/30 03:10:35;;;;;;;18.95;8.13;;;11.40;99.90;;;;;;5058875;28;20188;-83
2021/12/30 03:13:09;;;;;;;21.48;8.73;;;11.40;99.90;;;;;;5058249;28;20181;-84
2021/12/30 03:15:36;;;;;;;23.70;8.00;;;11.30;99.90;;;;;;5059386;28;20561;-83
2021/12/30 03:18:02;;;;;;;23.63;8.60;;;11.30;99.90;;;;;;5059173;28;20647;-84
2021/12/30 03:20:32;;;;;;;18.27;7.70;;;11.40;99.90;;;;;;5058715;28;20269;-82
2021/12/30 03:22:59;;;;;;;27.83;8.65;;;11.40;99.90;;;;;;5059481;28;20221;-83
2021/12/30 03:25:24;;;;;;;27.60;9.45;;;11.40;99.90;;;;;;5058968;28;20246;-83
2021/12/30 03:27:50;;;;;;;24.83;8.15;;;11.40;99.90;;;;;;5059762;28;20202;-82
2021/12/30 03:30:17;;;;;;;22.60;9.13;;;11.40;99.90;;;;;;5058973;28;20229;-83
2021/12/30 03:32:43;;;;;;;20.35;7.65;;;11.40;99.90;;;;;;5057556;28;20178;-83
2021/12/30 03:35:10;;;;;;;21.00;7.45;;;11.50;99.90;;;;;;5057342;28;20252;-83
2021/12/30 03:37:37;;;;;;;20.88;8.40;;;11.50;99.90;;;;;;5057860;28;20274;-83
2021/12/30 03:40:07;;;;;;;24.85;8.70;;;11.50;99.90;;;;;;5060437;28;20269;-83
2021/12/30 03:42:32;;;;;;;21.05;9.13;;;11.50;99.90;;;;;;5058698;28;20228;-83
2021/12/30 03:45:00;;;;;;;25.88;9.20;;;11.50;99.90;;;;;;5059993;28;20566;-83
2021/12/30 03:47:26;;;;;;;27.85;9.57;;;11.50;99.90;;;;;;5058676;28;20220;-83
2021/12/30 03:49:53;;;;;;;34.83;10.50;;;11.50;99.90;;;;;;5059134;28;20663;-83
2021/12/30 03:52:30;;;;;;;22.40;10.23;;;11.50;99.90;;;;;;5058850;28;20174;-83
2021/12/30 03:54:56;;;;;;;20.55;9.10;;;11.40;99.90;;;;;;5059570;28;20237;-83
2021/12/30 03:57:21;;;;;;;24.33;10.48;;;11.40;99.90;;;;;;5058968;28;20175;-83
2021/12/30 03:59:47;;;;;;;28.23;10.07;;;11.40;99.90;;;;;;5059408;28;20252;-83
2021/12/30 04:02:13;;;;;;;25.63;10.45;;;11.40;99.90;;;;;;5059645;28;20175;-85
2021/12/30 04:04:39;;;;;;;28.48;9.60;;;11.30;99.90;;;;;;5059599;28;20238;-84
2021/12/30 04:07:05;;;;;;;22.83;10.30;;;11.30;99.90;;;;;;5059672;28;20209;-85
2021/12/30 04:09:31;;;;;;;23.37;10.03;;;11.30;99.90;;;;;;5060779;28;20257;-85
2021/12/30 04:11:57;;;;;;;18.90;9.60;;;11.30;99.90;;;;;;5059767;28;20266;-85
2021/12/30 04:14:26;;;;;;;24.35;10.55;;;11.30;99.90;;;;;;5058951;28;20202;-83
2021/12/30 04:16:52;;;;;;;22.27;10.02;;;11.30;99.90;;;;;;5059563;28;20174;-83
2021/12/30 04:19:18;;;;;;;25.42;10.13;;;11.30;99.90;;;;;;5059435;28;20270;-83
2021/12/30 04:21:44;;;;;;;23.63;9.98;;;11.30;99.90;;;;;;5059119;28;20542;-85
2021/12/30 04:24:10;;;;;;;25.08;11.05;;;11.30;99.90;;;;;;5060417;28;20182;-85
2021/12/30 04:26:36;;;;;;;18.65;8.95;;;11.30;99.90;;;;;;5063447;28;20210;-83
2021/12/30 04:29:04;;;;;;;22.67;10.05;;;11.30;99.90;;;;;;5068898;28;20210;-83
2021/12/30 04:31:31;;;;;;;25.73;10.27;;;11.30;99.90;;;;;;5060817;28;20182;-83
2021/12/30 04:33:57;;;;;;;23.60;10.18;;;11.30;99.90;;;;;;5056755;28;20170;-83
2021/12/30 04:36:23;;;;;;;20.17;9.90;;;11.30;99.90;;;;;;5056320;28;20198;-83
2021/12/30 04:38:49;;;;;;;23.90;9.90;;;11.30;99.90;;;;;;5057097;28;20185;-83
2021/12/30 04:41:14;;;;;;;21.15;10.02;;;11.30;99.90;;;;;;5057038;28;20178;-83
2021/12/30 04:43:40;;;;;;;38.15;10.57;;;11.30;99.90;;;;;;5056935;28;20174;-82
2021/12/30 04:46:06;;;;;;;19.03;10.10;;;11.40;99.90;;;;;;5059269;28;20201;-82
2021/12/30 04:48:32;;;;;;;26.48;11.23;;;11.40;99.90;;;;;;5059235;28;20217;-82
2021/12/30 04:50:58;;;;;;;20.70;10.48;;;11.40;99.90;;;;;;5058095;28;20635;-83
2021/12/30 04:53:23;;;;;;;26.23;10.70;;;11.40;99.90;;;;;;5057333;28;20553;-82
2021/12/30 04:55:49;;;;;;;23.52;9.80;;;11.50;99.90;;;;;;5058048;28;20286;-82
2021/12/30 04:58:16;;;;;;;23.30;9.65;;;11.50;99.90;;;;;;5057045;28;20235;-81
2021/12/30 05:00:42;;;;;;;20.13;10.13;;;11.60;99.90;;;;;;5057742;28;20208;-81
2021/12/30 05:05:40;;;;;;;20.58;9.68;;;11.70;99.90;;;;;;5059130;28;20680;-81
2021/12/30 05:08:06;;;;;;;24.08;10.07;;;11.70;99.90;;;;;;5058779;28;20202;-84
2021/12/30 05:10:32;;;;;;;21.73;9.32;;;11.70;99.90;;;;;;5058074;28;20671;-83
2021/12/30 05:12:58;;;;;;;22.50;9.15;;;11.70;99.90;;;;;;5057133;28;20593;-83
2021/12/30 05:15:24;;;;;;;16.63;8.80;;;11.80;99.90;;;;;;5057200;28;20199;-83
2021/12/30 05:17:50;;;;;;;19.70;9.48;;;11.80;99.90;;;;;;5057714;28;20233;-83
2021/12/30 05:20:15;;;;;;;17.17;8.20;;;11.80;99.90;;;;;;5058056;28;20268;-84
2021/12/30 05:22:42;;;;;;;19.02;9.25;;;11.80;99.90;;;;;;5058136;28;20182;-84
2021/12/30 05:25:13;;;;;;;16.02;8.75;;;11.80;99.90;;;;;;5057327;28;20247;-84
2021/12/30 05:27:39;;;;;;;18.33;9.10;;;11.80;99.90;;;;;;5059680;28;20249;-84
2021/12/30 05:30:06;;;;;;;14.43;9.15;;;11.80;99.90;;;;;;5059901;28;20190;-82
2021/12/30 05:32:32;;;;;;;12.88;7.82;;;11.80;99.90;;;;;;5062288;28;20589;-83
2021/12/30 05:34:58;;;;;;;13.20;7.57;;;11.80;99.90;;;;;;5059610;28;20281;-83
2021/12/30 05:37:24;;;;;;;13.70;7.53;;;11.80;99.90;;;;;;5059013;28;20525;-83
2021/12/30 05:39:49;;;;;;;14.70;7.80;;;11.80;99.90;;;;;;5059591;28;20185;-83
2021/12/30 05:42:15;;;;;;;14.20;6.90;;;11.80;99.90;;;;;;5064171;28;20175;-82
2021/12/30 05:44:41;;;;;;;10.83;6.37;;;11.80;99.90;;;;;;5062041;28;20182;-82
2021/12/30 05:47:07;;;;;;;12.07;6.85;;;11.80;99.90;;;;;;5060422;28;20159;-83
2021/12/30 05:49:33;;;;;;;9.15;5.60;;;11.80;99.90;;;;;;5059220;28;20216;-83
2021/12/30 05:51:59;;;;;;;11.32;5.97;;;11.80;99.90;;;;;;5058567;28;20189;-82
2021/12/30 05:54:24;;;;;;;10.13;5.80;;;11.80;99.90;;;;;;5066700;28;20626;-82
2021/12/30 05:56:50;;;;;;;7.45;5.20;;;11.80;99.90;;;;;;5057285;28;20185;-82
2021/12/30 05:59:16;;;;;;;8.05;4.90;;;11.80;99.90;;;;;;5058404;28;20181;-82
2021/12/30 06:01:42;;;;;;;7.15;4.65;;;11.80;99.90;;;;;;5057331;28;20179;-82
2021/12/30 06:04:08;;;;;;;6.50;4.28;;;11.70;99.90;;;;;;5056940;28;20208;-82
2021/12/30 06:06:33;;;;;;;7.45;3.83;;;11.70;99.90;;;;;;5056097;28;20687;-82
2021/12/30 06:08:59;;;;;;;5.50;4.13;;;11.70;99.90;;;;;;5056278;28;20216;-82
2021/12/30 06:11:25;;;;;;;5.53;3.78;;;11.80;99.90;;;;;;5055976;28;20189;-81
2021/12/30 06:13:50;;;;;;;6.38;4.15;;;11.80;99.90;;;;;;5057425;28;20163;-82
2021/12/30 06:16:16;;;;;;;6.03;4.00;;;11.80;99.90;;;;;;5055778;28;20244;-83
2021/12/30 06:18:42;;;;;;;4.18;3.25;;;11.80;99.90;;;;;;5055583;28;20182;-82
2021/12/30 06:21:08;;;;;;;4.07;3.28;;;11.70;99.90;;;;;;5054776;28;20178;-82
2021/12/30 06:23:33;;;;;;;4.00;3.00;;;11.70;99.90;;;;;;5054857;28;20186;-81
2021/12/30 06:25:59;;;;;;;3.10;2.80;;;11.80;99.90;;;;;;5058274;28;20217;-82
2021/12/30 06:28:25;;;;;;;3.40;3.10;;;11.70;99.90;;;;;;5059900;28;20221;-82
2021/12/30 06:30:50;;;;;;;3.20;3.00;;;11.80;99.90;;;;;;5058115;28;20209;-82
2021/12/30 06:33:19;;;;;;;3.10;2.90;;;11.80;99.90;;;;;;5058228;28;20204;-81
2021/12/30 06:35:45;;;;;;;3.13;2.92;;;11.80;99.90;;;;;;5058743;28;20705;-81
2021/12/30 06:38:10;;;;;;;3.05;2.80;;;11.80;99.90;;;;;;5057584;28;20210;-81
2021/12/30 06:40:36;;;;;;;3.45;3.15;;;11.70;99.90;;;;;;5056718;28;20186;-80
2021/12/30 06:43:02;;;;;;;4.30;2.95;;;11.80;99.90;;;;;;5056663;28;20686;-80
2021/12/30 06:45:28;;;;;;;3.92;3.10;;;11.80;99.90;;;;;;5058426;28;20241;-81
2021/12/30 06:47:54;;;;;;;3.30;3.00;;;11.70;99.90;;;;;;5056418;28;20249;-82
2021/12/30 06:50:22;;;;;;;3.17;2.70;;;11.70;99.90;;;;;;5057212;28;20204;-82
2021/12/30 06:52:48;;;;;;;3.95;3.00;;;11.80;99.90;;;;;;5058270;28;20254;-82
2021/12/30 06:55:15;;;;;;;3.30;3.00;;;11.70;99.90;;;;;;5056998;28;20218;-82
2021/12/30 06:57:41;;;;;;;3.60;3.15;;;11.80;99.90;;;;;;5057101;28;20178;-82
2021/12/30 07:00:08;;;;;;;3.53;3.00;;;11.80;99.90;;;;;;5058392;28;20662;-82
2021/12/30 07:02:35;;;;;;;4.15;3.25;;;11.80;99.90;;;;;;5056904;28;20179;-83
2021/12/30 07:05:01;;;;;;;4.55;3.72;;;11.80;99.90;;;;;;5057840;28;20288;-85
2021/12/30 07:07:27;;;;;;;4.35;3.70;;;11.90;99.90;;;;;;5058030;28;20178;-85
2021/12/30 07:09:53;;;;;;;5.32;3.80;;;11.90;99.90;;;;;;5060413;28;20240;-85
2021/12/30 07:12:19;;;;;;;4.60;3.75;;;12.00;99.90;;;;;;5060361;28;20174;-85
2021/12/30 07:14:45;;;;;;;5.75;4.35;;;12.00;99.90;;;;;;5056168;28;20528;-85
2021/12/30 07:17:11;;;;;;;7.15;4.68;;;12.00;99.90;;;;;;5058660;28;20170;-86
2021/12/30 07:19:37;;;;;;;6.30;4.53;;;12.10;99.90;;;;;;5056329;28;20183;-86
2021/12/30 07:22:03;;;;;;;8.00;5.35;;;12.20;99.90;;;;;;5056265;28;20199;-84
2021/12/30 07:24:28;;;;;;;9.40;5.38;;;12.20;99.90;;;;;;5056904;28;20201;-87
2021/12/30 07:26:54;;;;;;;8.20;5.47;;;12.30;99.90;;;;;;5055833;28;20174;-84
2021/12/30 07:29:20;;;;;;;9.57;5.72;;;12.30;99.90;;;;;;5055490;28;20701;-87
2021/12/30 07:31:48;;;;;;;10.77;6.22;;;12.40;99.90;;;;;;5055478;28;20199;-86
2021/12/30 07:34:15;;;;;;;13.73;6.60;;;12.50;99.90;;;;;;5055406;28;20196;-86
2021/12/30 07:36:41;;;;;;;8.90;5.95;;;12.50;99.90;;;;;;5054839;28;20205;-87
2021/12/30 07:39:06;;;;;;;10.25;6.47;;;12.60;99.90;;;;;;5055538;28;20175;-86
2021/12/30 07:41:32;;;;;;;9.90;6.40;;;12.60;99.90;;;;;;5055432;28;20651;-87
2021/12/30 07:43:58;;;;;;;10.38;6.53;;;12.60;99.90;;;;;;5055331;28;20178;-87
2021/12/30 07:46:24;;;;;;;10.85;6.40;;;12.60;99.90;;;;;;5055089;28;20202;-86
2021/12/30 07:48:49;;;;;;;11.43;6.78;;;12.70;99.90;;;;;;5059407;28;20228;-86
2021/12/30 07:51:15;;;;;;;9.52;6.38;;;12.70;99.90;;;;;;5065519;28;20186;-83
2021/12/30 07:53:41;;;;;;;13.25;7.03;;;12.80;99.90;;;;;;5057374;28;20182;-83
2021/12/30 07:56:10;;;;;;;10.52;6.93;;;12.80;99.90;;;;;;5056507;28;20257;-83
2021/12/30 07:58:36;;;;;;;11.38;6.75;;;12.80;99.90;;;;;;5060937;28;20189;-83
2021/12/30 08:01:02;;;;;;;10.40;6.63;;;12.80;99.90;;;;;;5063943;28;20183;-82
2021/12/30 08:03:28;;;;;;;11.77;6.53;;;12.80;99.90;;;;;;5058535;28;20185;-83
2021/12/30 08:05:53;;;;;;;9.95;6.57;;;12.80;99.90;;;;;;5058423;28;20202;-83
2021/12/30 08:08:19;;;;;;;9.00;6.30;;;12.80;99.90;;;;;;5056614;28;20238;-83
2021/12/30 08:10:45;;;;;;;9.48;6.30;;;12.80;99.90;;;;;;5059627;28;20178;-83
2021/12/30 08:13:11;;;;;;;8.55;5.93;;;12.90;99.90;;;;;;5056928;28;20179;-84
2021/12/30 08:15:36;;;;;;;7.57;5.65;;;12.90;99.90;;;;;;5056457;28;20690;-83
2021/12/30 08:18:02;;;;;;;10.85;5.95;;;12.90;99.90;;;;;;5055084;28;20186;-84
2021/12/30 08:20:28;;;;;;;8.30;5.80;;;12.90;99.90;;;;;;5055273;28;20261;-83
2021/12/30 08:22:54;;;;;;;6.43;5.18;;;12.90;99.90;;;;;;5054552;28;20268;-83
2021/12/30 08:25:21;;;;;;;9.27;5.40;;;12.90;99.90;;;;;;5054392;28;20221;-84
2021/12/30 08:27:47;;;;;;;7.18;4.65;;;12.90;99.90;;;;;;5054349;28;20317;-83
2021/12/30 08:30:17;;;;;;;6.03;4.65;;;12.90;99.90;;;;;;5054260;28;20178;-83
2021/12/30 08:32:43;;;;;;;6.60;5.38;;;12.90;99.90;;;;;;5054389;28;20174;-83
2021/12/30 08:35:11;;;;;;;7.03;5.00;;;12.90;99.90;;;;;;5055700;28;20686;-83
2021/12/30 08:37:37;;;;;;;9.38;5.65;;;12.90;99.90;;;;;;5054450;28;20198;-83
2021/12/30 08:40:08;;;;;;;9.77;5.30;;;12.90;99.90;;;;;;5054431;28;20182;-84
2021/12/30 08:42:34;;;;;;;8.75;5.90;;;12.90;99.90;;;;;;5054452;28;20186;-83
2021/12/30 08:45:01;;;;;;;6.20;4.80;;;12.90;99.90;;;;;;5054656;28;20194;-84
2021/12/30 08:47:28;;;;;;;5.78;4.78;;;12.90;99.90;;;;;;5053579;28;20224;-83
2021/12/30 08:49:55;;;;;;;6.93;4.93;;;12.90;99.90;;;;;;5055432;28;20185;-84
2021/12/30 08:52:23;;;;;;;7.28;5.00;;;12.90;99.90;;;;;;5054544;28;20185;-83
2021/12/30 08:54:50;;;;;;;8.35;5.43;;;12.90;99.90;;;;;;5054691;28;20178;-83
2021/12/30 08:57:18;;;;;;;6.85;5.28;;;12.90;99.90;;;;;;5054179;28;20174;-83
2021/12/30 08:59:44;;;;;;;6.22;4.45;;;12.90;99.90;;;;;;5053976;28;20221;-83
2021/12/30 09:02:11;;;;;;;6.40;4.63;;;12.80;99.90;;;;;;5053755;28;20182;-83
2021/12/30 09:04:37;;;;;;;6.47;4.70;;;12.80;99.90;;;;;;5053670;28;20181;-83
2021/12/30 09:07:03;;;;;;;7.32;5.05;;;12.80;99.90;;;;;;5065388;28;20183;-83
2021/12/30 09:09:29;;;;;;;6.35;4.88;;;12.90;99.90;;;;;;5057244;28;20231;-83
2021/12/30 09:11:56;;;;;;;7.55;4.82;;;12.80;99.90;;;;;;5056033;28;20281;-83
2021/12/30 09:14:22;;;;;;;7.45;5.03;;;12.90;99.90;;;;;;5055831;28;20171;-83
2021/12/30 09:16:51;;;;;;;7.38;5.30;;;12.90;99.90;;;;;;5055217;28;20284;-83
2021/12/30 09:19:18;;;;;;;7.57;4.97;;;12.90;99.90;;;;;;5054972;28;20170;-83
2021/12/30 09:21:44;;;;;;;6.65;4.85;;;12.90;99.90;;;;;;5054967;28;20183;-83
2021/12/30 09:24:10;;;;;;;8.23;5.13;;;12.80;99.90;;;;;;5054568;28;20173;-83
2021/12/30 09:26:37;;;;;;;7.75;5.18;;;12.90;99.90;;;;;;5054566;28;20202;-83
2021/12/30 09:29:10;;;;;;;7.00;5.25;;;12.80;99.90;;;;;;5054021;28;20206;-83
2021/12/30 09:31:45;;;;;;;8.10;5.03;;;12.80;99.90;;;;;;5055435;28;20703;-83
2021/12/30 09:34:12;;;;;;;7.90;5.35;;;12.80;99.90;;;;;;5053885;28;20182;-83
2021/12/30 09:36:38;;;;;;;6.85;4.90;;;12.80;99.90;;;;;;5053988;28;20654;-83
2021/12/30 09:39:08;;;;;;;8.98;5.18;;;12.90;99.90;;;;;;5054022;28;20210;-83
2021/12/30 09:41:37;;;;;;;8.55;5.95;;;12.90;99.90;;;;;;5054723;28;20178;-83
2021/12/30 09:44:04;;;;;;;8.55;5.30;;;12.80;99.90;;;;;;5054592;28;20295;-83
2021/12/30 09:46:30;;;;;;;8.48;5.70;;;12.80;99.90;;;;;;5053100;28;20205;-83
2021/12/30 09:48:56;;;;;;;7.82;5.30;;;12.90;99.90;;;;;;5054248;28;20208;-82
2021/12/30 09:51:22;;;;;;;6.18;4.90;;;12.90;99.90;;;;;;5053100;28;20265;-83
2021/12/30 09:53:51;;;;;;;6.55;4.30;;;12.80;99.90;;;;;;5053071;28;20228;-82
2021/12/30 09:56:19;;;;;;;5.20;4.05;;;12.90;99.90;;;;;;5052944;28;20195;-83
2021/12/30 09:58:44;;;;;;;4.57;3.90;;;12.90;99.90;;;;;;5052606;28;20269;-83
2021/12/30 10:01:10;;;;;;;6.45;4.07;;;12.90;99.90;;;;;;5053022;28;20265;-83
2021/12/30 10:03:36;;;;;;;5.55;3.63;;;13.00;99.90;;;;;;5052608;28;20178;-83
2021/12/30 10:06:10;;;;;;;6.07;3.92;;;13.00;99.90;;;;;;5054343;28;20747;-83
2021/12/30 10:08:40;;;;;;;4.22;3.30;;;13.00;99.90;;;;;;5052873;28;20213;-83
2021/12/30 10:11:14;;;;;;;4.22;3.65;;;13.00;99.90;;;;;;5053035;28;20193;-83
2021/12/30 10:14:00;;;;;;;3.88;3.47;;;13.10;99.90;;;;;;5053058;28;20582;-83
2021/12/30 10:16:27;;;;;;;4.78;3.20;;;13.10;99.90;;;;;;5052383;28;20221;-83
2021/12/30 10:18:56;;;;;;;4.78;3.70;;;13.10;99.90;;;;;;5052779;28;20178;-83
2021/12/30 10:21:30;;;;;;;7.03;3.67;;;13.10;99.90;;;;;;5054680;28;20257;-83
2021/12/30 10:23:58;;;;;;;6.60;3.83;;;13.20;99.90;;;;;;5053370;28;20174;-84
2021/12/30 10:26:24;;;;;;;4.03;3.50;;;13.20;99.90;;;;;;5052859;28;20237;-84
2021/12/30 10:29:02;;;;;;;5.68;4.47;;;13.20;99.90;;;;;;5053060;28;20205;-83
2021/12/30 10:31:30;;;;;;;5.82;4.25;;;13.20;99.90;;;;;;5053314;28;20194;-84
2021/12/30 10:34:05;;;;;;;7.10;4.60;;;13.20;99.90;;;;;;5053634;28;20170;-84
2021/12/30 10:36:40;;;;;;;7.20;4.90;;;13.30;99.90;;;;;;5053314;28;20194;-83
2021/12/30 10:39:26;;;;;;;5.75;4.93;;;13.40;99.90;;;;;;5053724;28;20185;-83
2021/12/30 10:42:09;;;;;;;6.97;4.80;;;13.40;99.90;;;;;;5053731;28;20627;-83
2021/12/30 10:45:07;;;;;;;5.30;4.80;;;13.40;99.90;;;;;;5053301;28;20772;-83
2021/12/30 10:47:53;;;;;;;6.63;5.00;;;13.50;99.90;;;;;;5038182;28;20200;-84
2021/12/30 10:50:24;;;;;;;6.68;4.90;;;13.50;99.90;;;;;;5053043;28;20198;-84
2021/12/30 10:52:55;;;;;;;6.60;4.93;;;13.60;99.90;;;;;;5052528;28;20607;-84
2021/12/30 10:55:23;;;;;;;6.47;4.90;;;13.60;99.90;;;;;;5052840;28;20191;-83
2021/12/30 10:57:49;;;;;;;5.53;4.47;;;13.60;99.90;;;;;;5052763;28;20265;-83
2021/12/30 11:00:33;;;;;;;4.93;3.80;;;13.70;99.90;;;;;;5052108;28;20225;-82
2021/12/30 11:03:27;;;;;;;4.85;4.30;;;13.80;99.90;;;;;;5052882;28;20177;-87
2021/12/30 11:06:11;;;;;;;6.07;4.40;;;13.90;99.90;;;;;;5052386;28;20221;-86
2021/12/30 11:08:36;;;;;;;4.28;3.88;;;13.90;99.90;;;;;;5054640;28;20202;-86
2021/12/30 11:11:22;;;;;;;4.07;3.67;;;13.90;99.90;;;;;;5055428;28;20181;-81
2021/12/30 11:14:12;;;;;;;3.53;3.22;;;13.90;99.90;;;;;;5056387;28;20595;-88
2021/12/30 11:16:59;;;;;;;5.57;4.43;;;13.90;99.90;;;;;;5055898;28;20616;-80
2021/12/30 11:19:26;;;;;;;4.72;4.32;;;13.90;99.90;;;;;;5056162;28;20178;-84
2021/12/30 11:21:53;;;;;;;3.80;3.50;;;13.90;99.90;;;;;;5055852;28;20660;-84
2021/12/30 11:27:21;;;;;;;3.63;3.30;;;14.10;99.90;;;;;;5054486;28;20202;-87
2021/12/30 11:29:51;;;;;;;3.63;3.33;;;14.10;99.90;;;;;;5056827;28;20611;-89
2021/12/30 11:32:20;;;;;;;4.65;4.03;;;14.10;99.90;;;;;;5055718;28;20175;-85
2021/12/30 11:34:47;;;;;;;5.03;4.15;;;14.10;99.90;;;;;;5055767;28;20182;-88
2021/12/30 11:37:19;;;;;;;4.63;4.18;;;14.00;99.90;;;;;;5056797;28;20183;-89
2021/12/30 11:39:48;;;;;;;4.40;4.00;;;13.90;99.90;;;;;;5057040;28;20289;-85
2021/12/30 11:42:28;;;;;;;5.10;4.38;;;13.90;99.90;;;;;;5055895;28;20602;-85
2021/12/30 11:45:01;;;;;;;4.70;3.88;;;13.90;99.90;;;;;;5056685;28;20201;-82
2021/12/30 11:47:35;;;;;;;5.05;3.88;;;13.90;99.90;;;;;;5056143;28;20166;-82
2021/12/30 11:50:15;;;;;;;4.38;3.90;;;13.80;99.90;;;;;;5057084;28;20208;-83
2021/12/30 11:52:52;;;;;;;7.05;3.92;;;13.80;99.90;;;;;;5056280;28;20166;-82
2021/12/30 11:55:51;;;;;;;6.35;4.10;;;13.90;99.90;;;;;;5055733;28;20194;-81
2021/12/30 11:58:35;;;;;;;4.10;3.78;;;13.90;99.90;;;;;;5056138;28;20179;-81
2021/12/30 12:01:28;;;;;;;6.70;4.47;;;13.90;99.90;;;;;;5055771;28;20198;-81
2021/12/30 12:03:53;;;;;;;5.88;4.53;;;13.80;99.90;;;;;;5055359;28;20224;-81
2021/12/30 12:06:28;;;;;;;6.55;4.80;;;13.70;99.90;;;;;;5055058;28;20198;-80
2021/12/30 12:09:05;;;;;;;6.32;4.53;;;13.60;99.90;;;;;;5055338;28;20295;-80
2021/12/30 12:11:41;;;;;;;4.85;4.13;;;13.50;99.90;;;;;;5054858;28;20206;-80
2021/12/30 12:14:21;;;;;;;6.80;4.38;;;13.50;99.90;;;;;;5055661;28;20635;-81
2021/12/30 12:16:55;;;;;;;8.65;4.20;;;13.50;99.90;;;;;;5055147;28;20201;-81
2021/12/30 12:19:32;;;;;;;8.05;4.40;;;13.60;99.90;;;;;;5054954;28;20768;-80
2021/12/30 12:21:58;;;;;;;7.63;4.32;;;13.60;99.90;;;;;;5067195;28;20185;-81
2021/12/30 12:24:33;;;;;;;6.80;4.10;;;13.70;99.90;;;;;;5059302;28;20170;-81
2021/12/30 12:27:06;;;;;;;8.70;4.28;;;13.80;99.90;;;;;;5058297;28;20205;-81
2021/12/30 12:29:40;;;;;;;3.78;3.40;;;13.80;99.90;;;;;;5058190;28;20206;-81
2021/12/30 12:32:10;;;;;;;8.35;4.03;;;13.80;99.90;;;;;;5057253;28;20187;-81
2021/12/30 12:34:46;;;;;;;8.25;3.95;;;13.90;99.90;;;;;;5056686;28;20155;-84
2021/12/30 12:37:30;;;;;;;7.40;3.58;;;13.90;99.90;;;;;;5055981;28;20583;-82
2021/12/30 12:40:15;;;;;;;5.75;4.07;;;13.80;99.90;;;;;;5054698;28;20174;-80
2021/12/30 12:42:53;;;;;;;6.68;4.03;;;13.80;99.90;;;;;;5055677;28;20520;-84
2021/12/30 12:45:20;;;;;;;8.82;3.80;;;13.90;99.90;;;;;;5055553;28;20257;-86
2021/12/30 12:47:50;;;;;;;5.53;3.67;;;13.80;99.90;;;;;;5056285;28;20184;-84
2021/12/30 12:50:16;;;;;;;7.25;3.97;;;13.90;99.90;;;;;;5055783;28;20178;-84
2021/12/30 12:53:22;;;;;;;7.25;3.60;;;13.90;99.90;;;;;;5054800;28;20727;-88